createdAt,value
2023-09-29T00:02:10.957Z,17.44
2023-09-29T00:04:53.820Z,17.43
2023-09-29T00:07:36.929Z,17.42
2023-09-29T00:10:22.002Z,17.42
2023-09-29T00:13:05.988Z,17.39
2023-09-29T00:15:50.658Z,17.39
2023-09-29T00:18:34.901Z,17.37
2023-09-29T00:21:17.805Z,17.37
2023-09-29T00:24:00.727Z,17.40
2023-09-29T00:26:43.657Z,17.41
2023-09-29T00:29:26.560Z,17.41
2023-09-29T00:32:09.519Z,17.42
2023-09-29T00:34:53.748Z,17.40
2023-09-29T00:37:36.642Z,17.39
2023-09-29T00:40:19.798Z,17.39
2023-09-29T00:43:04.865Z,17.38
2023-09-29T00:45:49.993Z,17.25
2023-09-29T00:48:34.629Z,17.07
2023-09-29T00:51:22.565Z,16.81
2023-09-29T00:54:09.624Z,16.84
2023-09-29T00:56:53.452Z,16.89
2023-09-29T00:59:37.062Z,16.80
2023-09-29T01:02:21.222Z,16.81
2023-09-29T01:05:04.086Z,16.85
2023-09-29T01:07:48.627Z,16.89
2023-09-29T01:10:31.485Z,16.91
2023-09-29T01:13:14.660Z,16.95
2023-09-29T01:15:57.560Z,16.98
2023-09-29T01:18:40.797Z,16.99
2023-09-29T01:21:23.746Z,16.98
2023-09-29T01:24:08.818Z,16.94
2023-09-29T01:26:51.892Z,16.85
2023-09-29T01:29:34.841Z,16.78
2023-09-29T01:32:17.746Z,16.74
2023-09-29T01:35:01.524Z,16.76
2023-09-29T01:37:45.342Z,16.77
2023-09-29T01:40:30.957Z,16.81
2023-09-29T01:43:14.071Z,16.84
2023-09-29T01:45:57.278Z,16.84
2023-09-29T01:48:41.729Z,16.85
2023-09-29T01:51:24.701Z,16.87
2023-09-29T01:54:08.219Z,16.89
2023-09-29T01:56:52.474Z,16.88
2023-09-29T01:59:35.753Z,16.88
2023-09-29T02:02:18.915Z,16.86
2023-09-29T02:05:01.955Z,16.87
2023-09-29T02:07:45.720Z,16.89
2023-09-29T02:10:29.046Z,16.89
2023-09-29T02:13:13.390Z,16.88
2023-09-29T02:15:56.297Z,16.86
2023-09-29T02:18:39.593Z,16.84
2023-09-29T02:21:23.842Z,16.82
2023-09-29T02:24:07.573Z,16.80
2023-09-29T02:26:51.911Z,16.78
2023-09-29T02:29:36.709Z,16.68
2023-09-29T02:32:19.624Z,16.75
2023-09-29T02:35:02.525Z,16.75
2023-09-29T02:37:45.541Z,16.75
2023-09-29T02:40:29.999Z,16.75
2023-09-29T02:43:13.014Z,16.75
2023-09-29T02:45:57.296Z,16.74
2023-09-29T02:48:40.246Z,16.73
2023-09-29T02:51:23.204Z,16.71
2023-09-29T02:54:11.673Z,16.72
2023-09-29T02:56:55.292Z,16.67
2023-09-29T02:59:39.104Z,16.59
2023-09-29T03:02:25.155Z,16.61
2023-09-29T03:05:10.177Z,16.53
2023-09-29T03:07:55.964Z,16.54
2023-09-29T03:10:39.159Z,16.53
2023-09-29T03:13:21.978Z,16.42
2023-09-29T03:16:05.353Z,16.44
2023-09-29T03:18:49.845Z,16.43
2023-09-29T03:21:33.997Z,16.39
2023-09-29T03:24:17.037Z,16.35
2023-09-29T03:27:00.137Z,16.31
2023-09-29T03:29:43.208Z,16.30
2023-09-29T03:32:26.209Z,16.29
2023-09-29T03:35:11.767Z,16.30
2023-09-29T03:37:54.668Z,16.30
2023-09-29T03:40:40.463Z,16.30
2023-09-29T03:43:24.452Z,16.28
2023-09-29T03:46:07.523Z,16.29
2023-09-29T03:48:50.409Z,16.33
2023-09-29T03:51:35.146Z,16.32
2023-09-29T03:54:19.776Z,16.34
2023-09-29T03:57:05.053Z,16.37
2023-09-29T03:59:48.029Z,16.31
2023-09-29T04:02:32.675Z,16.29
2023-09-29T04:05:16.553Z,16.28
2023-09-29T04:08:02.053Z,16.31
2023-09-29T04:10:44.923Z,16.31
2023-09-29T04:13:27.770Z,16.33
2023-09-29T04:16:10.684Z,16.32
2023-09-29T04:18:53.698Z,16.32
2023-09-29T04:21:36.622Z,16.31
2023-09-29T04:24:20.854Z,16.32
2023-09-29T04:27:03.988Z,16.34
2023-09-29T04:29:47.461Z,16.34
2023-09-29T04:32:30.572Z,16.35
2023-09-29T04:35:13.469Z,16.34
2023-09-29T04:37:56.366Z,16.35
2023-09-29T04:40:41.159Z,16.34
2023-09-29T04:43:23.865Z,16.34
2023-09-29T04:46:06.938Z,16.34
2023-09-29T04:48:54.155Z,16.25
2023-09-29T04:51:38.710Z,16.25
2023-09-29T04:54:21.639Z,16.25
2023-09-29T04:57:05.873Z,16.23
2023-09-29T04:59:48.800Z,16.22
2023-09-29T05:02:31.723Z,16.21
2023-09-29T05:05:14.784Z,16.14
2023-09-29T05:07:57.742Z,16.07
2023-09-29T05:10:40.635Z,16.03
2023-09-29T05:13:25.922Z,16.03
2023-09-29T05:16:08.954Z,16.04
2023-09-29T05:18:54.680Z,16.03
2023-09-29T05:21:37.907Z,16.04
2023-09-29T05:24:20.870Z,16.03
2023-09-29T05:27:03.861Z,15.99
2023-09-29T05:29:48.335Z,15.99
2023-09-29T05:32:32.483Z,16.00
2023-09-29T05:35:15.651Z,16.02
2023-09-29T05:37:58.503Z,16.04
2023-09-29T05:40:41.439Z,16.05
2023-09-29T05:43:24.333Z,16.06
2023-09-29T05:46:08.712Z,16.09
2023-09-29T05:48:51.606Z,16.10
2023-09-29T05:51:34.480Z,16.07
2023-09-29T05:54:17.352Z,15.94
2023-09-29T05:57:00.336Z,15.95
2023-09-29T05:59:43.406Z,15.96
2023-09-29T06:02:27.753Z,15.99
2023-09-29T06:05:12.026Z,16.22
2023-09-29T06:07:58.109Z,16.30
2023-09-29T06:10:41.691Z,16.37
2023-09-29T06:13:24.709Z,16.40
2023-09-29T06:16:09.393Z,16.40
2023-09-29T06:18:54.067Z,16.44
2023-09-29T06:21:37.095Z,16.46
2023-09-29T06:24:19.973Z,16.49
2023-09-29T06:27:03.996Z,16.52
2023-09-29T06:29:51.050Z,16.56
2023-09-29T06:32:34.203Z,16.59
2023-09-29T06:35:18.576Z,16.61
2023-09-29T06:38:01.448Z,16.66
2023-09-29T06:40:44.629Z,16.71
2023-09-29T06:43:27.486Z,16.76
2023-09-29T06:46:10.415Z,16.79
2023-09-29T06:48:54.739Z,16.82
2023-09-29T06:51:39.070Z,16.90
2023-09-29T06:54:22.107Z,16.97
2023-09-29T06:57:05.388Z,17.04
2023-09-29T06:59:49.348Z,17.07
2023-09-29T07:02:32.283Z,17.11
2023-09-29T07:05:16.981Z,17.13
2023-09-29T07:08:01.077Z,17.14
2023-09-29T07:10:45.526Z,17.18
2023-09-29T07:13:28.448Z,17.22
2023-09-29T07:16:11.728Z,17.29
2023-09-29T07:18:55.059Z,17.34
2023-09-29T07:21:38.306Z,17.39
2023-09-29T07:24:23.987Z,17.45
2023-09-29T07:27:09.356Z,17.50
2023-09-29T07:29:52.422Z,17.55
2023-09-29T07:32:36.053Z,17.58
2023-09-29T07:35:20.271Z,17.63
2023-09-29T07:38:03.522Z,17.70
2023-09-29T07:40:49.108Z,17.73
2023-09-29T07:43:31.963Z,17.78
2023-09-29T07:46:15.281Z,17.84
2023-09-29T07:48:58.882Z,17.87
2023-09-29T07:51:42.102Z,17.93
2023-09-29T07:54:25.065Z,17.97
2023-09-29T07:57:09.338Z,18.01
2023-09-29T07:59:53.519Z,18.07
2023-09-29T08:02:37.061Z,18.17
2023-09-29T08:05:21.158Z,18.22
2023-09-29T08:08:04.462Z,18.34
2023-09-29T08:10:47.413Z,18.38
2023-09-29T08:13:32.674Z,18.47
2023-09-29T08:16:16.881Z,18.56
2023-09-29T08:19:00.022Z,18.58
2023-09-29T08:21:44.000Z,18.70
2023-09-29T08:24:26.921Z,18.78
2023-09-29T08:27:10.060Z,18.83
2023-09-29T08:29:55.976Z,18.96
2023-09-29T08:32:39.956Z,19.05
2023-09-29T08:35:22.970Z,19.10
2023-09-29T08:38:06.534Z,19.15
2023-09-29T08:40:53.479Z,19.25
2023-09-29T08:43:41.600Z,19.40
2023-09-29T08:46:28.632Z,19.47
2023-09-29T08:49:12.038Z,19.59
2023-09-29T08:51:56.611Z,19.71
2023-09-29T08:54:40.256Z,19.80
2023-09-29T08:57:24.596Z,19.88
2023-09-29T09:00:12.700Z,20.06
2023-09-29T09:02:59.782Z,20.26
2023-09-29T09:05:42.936Z,20.53
2023-09-29T09:08:26.432Z,20.83
2023-09-29T09:11:09.594Z,21.12
2023-09-29T09:14:01.137Z,21.39
2023-09-29T09:16:46.386Z,21.45
2023-09-29T09:19:30.734Z,21.53
2023-09-29T09:22:18.489Z,21.75
2023-09-29T09:25:05.405Z,21.88
2023-09-29T09:27:53.599Z,22.13
2023-09-29T09:30:38.944Z,22.49
2023-09-29T09:33:23.681Z,22.60
2023-09-29T09:36:11.500Z,22.76
2023-09-29T09:38:55.449Z,23.00
2023-09-29T09:41:39.608Z,23.14
2023-09-29T09:44:23.536Z,23.44
2023-09-29T09:47:13.058Z,23.63
2023-09-29T09:49:57.957Z,23.81
2023-09-29T09:52:45.428Z,24.06
2023-09-29T09:55:38.245Z,24.22
2023-09-29T09:58:24.744Z,24.43
2023-09-29T10:01:07.916Z,24.51
2023-09-29T10:03:52.014Z,24.65
2023-09-29T10:06:36.058Z,24.85
2023-09-29T10:09:21.829Z,25.05
2023-09-29T10:12:05.259Z,25.16
2023-09-29T10:14:48.187Z,25.31
2023-09-29T10:17:40.744Z,25.38
2023-09-29T10:20:27.772Z,25.33
2023-09-29T10:23:15.178Z,25.44
2023-09-29T10:26:00.670Z,25.57
2023-09-29T10:28:45.008Z,25.39
2023-09-29T10:31:30.590Z,25.54
2023-09-29T10:34:20.058Z,25.66
2023-09-29T10:37:03.639Z,25.82
2023-09-29T10:39:49.436Z,25.72
2023-09-29T10:42:39.281Z,25.70
2023-09-29T10:45:37.584Z,25.77
2023-09-29T10:48:24.372Z,25.90
2023-09-29T10:51:09.050Z,26.02
2023-09-29T10:53:52.126Z,26.15
2023-09-29T10:56:36.885Z,26.22
2023-09-29T10:59:21.142Z,26.24
2023-09-29T11:02:04.236Z,26.33
2023-09-29T11:04:48.069Z,26.53
2023-09-29T11:07:32.088Z,26.61
2023-09-29T11:10:16.110Z,26.51
2023-09-29T11:12:59.007Z,26.64
2023-09-29T11:15:43.459Z,26.78
2023-09-29T11:18:30.572Z,27.06
2023-09-29T11:21:14.060Z,27.22
2023-09-29T11:23:57.885Z,27.10
2023-09-29T11:26:42.597Z,27.16
2023-09-29T11:29:26.348Z,27.33
2023-09-29T11:32:10.666Z,27.39
2023-09-29T11:34:53.584Z,27.18
2023-09-29T11:37:36.469Z,27.10
2023-09-29T11:40:19.355Z,26.89
2023-09-29T11:43:02.208Z,26.97
2023-09-29T11:45:45.614Z,27.08
2023-09-29T11:48:30.221Z,27.14
2023-09-29T11:51:14.542Z,27.20
2023-09-29T11:53:58.002Z,27.27
2023-09-29T11:56:41.147Z,27.37
2023-09-29T11:59:24.033Z,27.57
2023-09-29T12:02:07.635Z,27.63
2023-09-29T12:04:52.285Z,27.75
2023-09-29T12:07:36.702Z,27.72
2023-09-29T12:10:19.558Z,27.72
2023-09-29T12:13:02.496Z,27.66
2023-09-29T12:15:45.589Z,27.69
2023-09-29T12:18:28.798Z,27.54
2023-09-29T12:21:14.216Z,27.66
2023-09-29T12:23:57.425Z,27.46
2023-09-29T12:26:47.098Z,27.38
2023-09-29T12:29:30.877Z,27.53
2023-09-29T12:32:13.903Z,27.72
2023-09-29T12:34:56.889Z,27.83
2023-09-29T12:37:41.210Z,28.08
2023-09-29T12:40:24.308Z,27.92
2023-09-29T12:43:07.210Z,27.76
2023-09-29T12:45:51.324Z,27.78
2023-09-29T12:48:34.477Z,27.85
2023-09-29T12:51:27.310Z,28.01
2023-09-29T12:54:12.440Z,28.13
2023-09-29T12:57:03.001Z,28.31
2023-09-29T12:59:47.496Z,28.59
2023-09-29T13:02:33.168Z,28.78
2023-09-29T13:05:16.205Z,28.90
2023-09-29T13:08:00.001Z,28.84
2023-09-29T13:10:44.607Z,28.80
2023-09-29T13:13:27.840Z,28.58
2023-09-29T13:16:12.382Z,28.62
2023-09-29T13:18:55.555Z,28.57
2023-09-29T13:21:38.556Z,28.61
2023-09-29T13:24:21.457Z,28.68
2023-09-29T13:27:05.861Z,28.59
2023-09-29T13:29:50.837Z,28.30
2023-09-29T13:32:34.023Z,28.15
2023-09-29T13:35:17.341Z,28.07
2023-09-29T13:38:00.280Z,27.81
2023-09-29T13:40:43.236Z,27.56
2023-09-29T13:43:27.495Z,27.35
2023-09-29T13:46:10.666Z,27.27
2023-09-29T13:48:53.582Z,27.15
2023-09-29T13:51:36.491Z,27.10
2023-09-29T13:54:19.462Z,27.04
2023-09-29T13:57:04.550Z,26.99
2023-09-29T13:59:49.077Z,26.83
2023-09-29T14:02:31.830Z,26.69
2023-09-29T14:05:15.168Z,26.60
2023-09-29T14:07:58.108Z,26.47
2023-09-29T14:10:41.139Z,26.33
2023-09-29T14:13:25.414Z,26.24
2023-09-29T14:16:09.703Z,26.18
2023-09-29T14:18:52.630Z,26.08
2023-09-29T14:21:35.596Z,26.02
2023-09-29T14:24:20.181Z,25.99
2023-09-29T14:27:03.195Z,25.99
2023-09-29T14:29:46.435Z,26.07
2023-09-29T14:32:30.707Z,26.13
2023-09-29T14:35:13.991Z,26.20
2023-09-29T14:37:56.910Z,26.10
2023-09-29T14:40:40.035Z,26.05
2023-09-29T14:43:25.170Z,26.08
2023-09-29T14:46:10.971Z,26.09
2023-09-29T14:48:55.464Z,26.14
2023-09-29T14:51:38.396Z,26.15
2023-09-29T14:54:22.014Z,26.16
2023-09-29T14:57:04.963Z,26.06
2023-09-29T14:59:48.689Z,26.02
2023-09-29T15:02:31.699Z,26.12
2023-09-29T15:05:16.103Z,26.27
2023-09-29T15:07:58.995Z,26.37
2023-09-29T15:10:43.334Z,26.29
2023-09-29T15:13:26.229Z,26.38
2023-09-29T15:16:12.956Z,26.43
2023-09-29T15:18:56.024Z,26.58
2023-09-29T15:21:40.356Z,26.45
2023-09-29T15:24:23.336Z,26.72
2023-09-29T15:27:07.528Z,26.66
2023-09-29T15:29:52.326Z,26.22
2023-09-29T15:32:35.421Z,26.38
2023-09-29T15:35:18.401Z,26.43
2023-09-29T15:38:03.006Z,26.51
2023-09-29T15:40:45.716Z,26.43
2023-09-29T15:43:28.618Z,26.07
2023-09-29T15:46:12.507Z,26.03
2023-09-29T15:48:55.535Z,25.94
2023-09-29T15:51:38.454Z,25.50
2023-09-29T15:54:22.688Z,25.19
2023-09-29T15:57:05.680Z,24.90
2023-09-29T15:59:48.669Z,24.79
2023-09-29T16:02:31.559Z,24.64
2023-09-29T16:05:14.927Z,24.46
2023-09-29T16:07:58.994Z,24.30
2023-09-29T16:10:43.247Z,24.19
2023-09-29T16:13:26.159Z,24.02
2023-09-29T16:16:09.319Z,23.83
2023-09-29T16:18:52.561Z,23.65
2023-09-29T16:21:35.525Z,23.49
2023-09-29T16:24:18.744Z,23.39
2023-09-29T16:27:03.072Z,23.25
2023-09-29T16:29:45.949Z,23.09
2023-09-29T16:32:32.191Z,23.03
2023-09-29T16:35:18.991Z,22.99
2023-09-29T16:38:08.426Z,22.76
2023-09-29T16:40:51.936Z,22.64
2023-09-29T16:43:36.397Z,22.57
2023-09-29T16:46:20.513Z,22.55
2023-09-29T16:49:03.609Z,22.55
2023-09-29T16:51:46.486Z,22.53
2023-09-29T16:54:30.703Z,22.50
2023-09-29T16:57:14.775Z,22.52
2023-09-29T16:59:59.156Z,22.49
2023-09-29T17:02:42.137Z,22.45
2023-09-29T17:05:25.069Z,22.41
2023-09-29T17:08:08.221Z,22.38
2023-09-29T17:10:51.162Z,22.35
2023-09-29T17:13:35.564Z,22.28
2023-09-29T17:16:19.844Z,22.16
2023-09-29T17:19:02.739Z,22.18
2023-09-29T17:21:45.642Z,22.13
2023-09-29T17:24:28.525Z,22.03
2023-09-29T17:27:11.522Z,21.91
2023-09-29T17:29:54.426Z,21.80
2023-09-29T17:32:39.307Z,21.72
2023-09-29T17:35:22.429Z,21.66
2023-09-29T17:38:05.759Z,21.51
2023-09-29T17:40:50.818Z,21.38
2023-09-29T17:43:33.778Z,21.28
2023-09-29T17:46:16.710Z,21.18
2023-09-29T17:49:01.257Z,21.14
2023-09-29T17:51:44.474Z,21.12
2023-09-29T17:54:28.191Z,21.10
2023-09-29T17:57:11.237Z,21.06
2023-09-29T17:59:55.354Z,21.05
2023-09-29T18:02:38.308Z,21.05
2023-09-29T18:05:22.583Z,21.04
2023-09-29T18:08:05.882Z,21.00
2023-09-29T18:10:49.826Z,20.95
2023-09-29T18:13:34.532Z,20.93
2023-09-29T18:16:17.447Z,20.90
2023-09-29T18:19:00.803Z,20.84
2023-09-29T18:21:45.418Z,20.83
2023-09-29T18:24:28.429Z,20.81
2023-09-29T18:27:11.629Z,20.80
2023-09-29T18:29:54.978Z,20.77
2023-09-29T18:32:39.449Z,20.79
2023-09-29T18:35:22.415Z,20.69
2023-09-29T18:38:06.861Z,20.67
2023-09-29T18:40:49.833Z,20.65
2023-09-29T18:43:34.195Z,20.65
2023-09-29T18:46:18.164Z,20.64
2023-09-29T18:49:01.856Z,20.43
2023-09-29T18:51:44.828Z,20.33
2023-09-29T18:54:29.643Z,20.21
2023-09-29T18:57:12.647Z,20.19
2023-09-29T18:59:56.230Z,20.20
2023-09-29T19:02:39.257Z,20.21
2023-09-29T19:05:22.946Z,20.21
2023-09-29T19:08:06.394Z,20.20
2023-09-29T19:10:50.676Z,20.40
2023-09-29T19:13:34.035Z,20.45
2023-09-29T19:16:17.098Z,20.46
2023-09-29T19:19:00.658Z,20.46
2023-09-29T19:21:43.788Z,20.47
2023-09-29T19:24:26.832Z,20.46
2023-09-29T19:27:11.317Z,20.46
2023-09-29T19:29:55.985Z,20.46
2023-09-29T19:32:39.972Z,20.46
2023-09-29T19:35:22.940Z,20.47
2023-09-29T19:38:11.297Z,20.47
2023-09-29T19:40:54.173Z,20.36
2023-09-29T19:43:38.402Z,20.32
2023-09-29T19:46:23.229Z,20.33
2023-09-29T19:49:06.476Z,20.33
2023-09-29T19:51:49.860Z,20.33
2023-09-29T19:54:33.131Z,20.33
2023-09-29T19:57:17.979Z,20.34
2023-09-29T20:00:02.312Z,20.36
2023-09-29T20:02:55.466Z,20.36
2023-09-29T20:05:41.634Z,20.35
2023-09-29T20:08:27.581Z,20.32
2023-09-29T20:11:10.949Z,20.31
2023-09-29T20:13:53.949Z,20.31
2023-09-29T20:16:38.354Z,20.30
2023-09-29T20:19:21.289Z,20.31
2023-09-29T20:22:04.185Z,20.30
2023-09-29T20:24:47.558Z,20.29
2023-09-29T20:27:30.578Z,20.27
2023-09-29T20:30:14.852Z,20.26
2023-09-29T20:32:59.417Z,20.23
2023-09-29T20:35:42.357Z,20.20
2023-09-29T20:38:25.277Z,20.13
2023-09-29T20:41:10.821Z,20.10
2023-09-29T20:43:53.765Z,20.07
2023-09-29T20:46:36.697Z,20.06
2023-09-29T20:49:21.042Z,20.07
2023-09-29T20:52:04.758Z,20.07
2023-09-29T20:54:47.673Z,20.02
2023-09-29T20:57:30.590Z,19.98
2023-09-29T21:00:14.456Z,19.97
2023-09-29T21:02:57.665Z,20.00
2023-09-29T21:05:42.023Z,19.99
2023-09-29T21:08:24.946Z,19.98
2023-09-29T21:11:08.003Z,19.99
2023-09-29T21:13:50.945Z,19.98
2023-09-29T21:16:33.878Z,19.92
2023-09-29T21:19:16.829Z,19.93
2023-09-29T21:22:03.748Z,19.93
2023-09-29T21:24:47.481Z,19.89
2023-09-29T21:27:30.567Z,19.89
2023-09-29T21:30:14.853Z,19.95
2023-09-29T21:32:57.940Z,19.98
2023-09-29T21:35:40.880Z,19.95
2023-09-29T21:38:25.224Z,19.94
2023-09-29T21:41:08.178Z,19.94
2023-09-29T21:43:51.090Z,19.93
2023-09-29T21:46:34.035Z,19.93
2023-09-29T21:49:19.631Z,19.92
2023-09-29T21:52:02.636Z,19.88
2023-09-29T21:54:46.876Z,19.88
2023-09-29T21:57:30.340Z,19.83
2023-09-29T22:00:18.683Z,19.84
2023-09-29T22:03:01.933Z,19.87
2023-09-29T22:05:46.274Z,19.89
2023-09-29T22:08:29.210Z,19.92
2023-09-29T22:11:14.197Z,19.85
2023-09-29T22:13:57.232Z,19.88
2023-09-29T22:16:41.376Z,19.94
2023-09-29T22:19:24.295Z,19.97
2023-09-29T22:22:07.193Z,19.95
2023-09-29T22:24:51.158Z,19.86
2023-09-29T22:27:36.779Z,19.81
2023-09-29T22:30:19.957Z,19.80
2023-09-29T22:33:03.062Z,19.73
2023-09-29T22:35:46.170Z,19.72
2023-09-29T22:38:29.050Z,19.73
2023-09-29T22:41:15.945Z,19.71
2023-09-29T22:44:00.251Z,19.69
2023-09-29T22:46:43.157Z,19.67
2023-09-29T22:49:26.030Z,19.66
2023-09-29T22:52:09.133Z,19.63
2023-09-29T22:54:52.532Z,19.59
2023-09-29T22:57:35.518Z,19.59
2023-09-29T23:00:19.908Z,19.52
2023-09-29T23:03:04.303Z,19.41
2023-09-29T23:05:47.956Z,19.41
2023-09-29T23:08:31.366Z,19.33
2023-09-29T23:11:14.275Z,19.38
2023-09-29T23:13:58.398Z,19.39
2023-09-29T23:16:42.876Z,19.39
2023-09-29T23:19:26.204Z,19.38
2023-09-29T23:22:10.561Z,19.35
2023-09-29T23:24:53.506Z,19.32
2023-09-29T23:27:36.426Z,19.29
2023-09-29T23:30:20.022Z,19.27
2023-09-29T23:33:05.185Z,19.22
2023-09-29T23:35:49.149Z,19.24
2023-09-29T23:38:32.289Z,19.22
2023-09-29T23:41:16.050Z,19.17
2023-09-29T23:43:59.098Z,19.21
2023-09-29T23:46:42.135Z,19.21
2023-09-29T23:49:26.956Z,19.16
2023-09-29T23:52:09.707Z,19.06
2023-09-29T23:54:54.145Z,19.06
2023-09-29T23:57:37.962Z,18.95
